sensor_id;sensor_type;location;lat;lon;timestamp;pressure;altitude;pressure_sealevel;temperature;humidity
69667;BME280;66534;52.370;4.832;2023-05-08T00:00:21;102087.78;;;16.46;100.00
69667;BME280;66534;52.370;4.832;2023-05-08T00:00:57;102099.41;;;16.43;100.00
69667;BME280;66534;52.370;4.832;2023-05-08T00:01:28;102092.53;;;16.39;100.00
69667;BME280;66534;52.370;4.832;2023-05-08T00:02:00;102094.13;;;16.25;100.00
69667;BME280;66534;52.370;4.832;2023-05-08T00:02:30;102089.94;;;16.38;100.00
69667;BME280;66534;52.370;4.832;2023-05-08T00:03:01;102094.88;;;16.46;100.00
69667;BME280;66534;52.370;4.832;2023-05-08T00:03:32;102086.69;;;16.50;100.00
69667;BME280;66534;52.370;4.832;2023-05-08T00:04:03;102086.47;;;16.55;100.00
69667;BME280;66534;52.370;4.832;2023-05-08T00:04:33;102091.41;;;16.62;100.00
69667;BME280;66534;52.370;4.832;2023-05-08T00:05:04;102096.41;;;16.68;100.00
69667;BME280;66534;52.370;4.832;2023-05-08T00:05:35;102090.84;;;16.56;100.00
69667;BME280;66534;52.370;4.832;2023-05-08T00:06:06;102088.97;;;16.58;100.00
69667;BME280;66534;52.370;4.832;2023-05-08T00:06:36;102093.09;;;16.63;100.00
69667;BME280;66534;52.370;4.832;2023-05-08T00:07:06;102093.34;;;16.59;100.00
69667;BME280;66534;52.370;4.832;2023-05-08T00:07:37;102081.03;;;16.58;100.00
69667;BME280;66534;52.370;4.832;2023-05-08T00:08:07;102089.72;;;16.42;100.00
69667;BME280;66534;52.370;4.832;2023-05-08T00:08:38;102080.53;;;16.32;100.00
69667;BME280;66534;52.370;4.832;2023-05-08T00:09:09;102078.72;;;16.33;100.00
69667;BME280;66534;52.370;4.832;2023-05-08T00:09:40;102078.56;;;16.18;100.00
69667;BME280;66534;52.370;4.832;2023-05-08T00:10:10;102085.66;;;16.18;100.00
69667;BME280;66534;52.370;4.832;2023-05-08T00:10:41;102081.75;;;16.25;100.00
69667;BME280;66534;52.370;4.832;2023-05-08T00:11:11;102083.81;;;16.37;100.00
69667;BME280;66534;52.370;4.832;2023-05-08T00:11:42;102073.22;;;16.37;100.00
69667;BME280;66534;52.370;4.832;2023-05-08T00:12:12;102080.88;;;16.43;100.00
69667;BME280;66534;52.370;4.832;2023-05-08T00:12:43;102078.69;;;16.52;100.00
69667;BME280;66534;52.370;4.832;2023-05-08T00:13:13;102081.97;;;16.57;100.00
69667;BME280;66534;52.370;4.832;2023-05-08T00:13:44;102084.69;;;16.55;100.00
69667;BME280;66534;52.370;4.832;2023-05-08T00:14:14;102089.13;;;16.55;100.00
69667;BME280;66534;52.370;4.832;2023-05-08T00:14:45;102082.34;;;16.49;100.00
69667;BME280;66534;52.370;4.832;2023-05-08T00:15:15;102086.00;;;16.47;100.00
69667;BME280;66534;52.370;4.832;2023-05-08T00:15:45;102088.81;;;16.43;100.00
69667;BME280;66534;52.370;4.832;2023-05-08T00:16:16;102087.41;;;16.54;100.00
69667;BME280;66534;52.370;4.832;2023-05-08T00:16:46;102091.78;;;16.55;100.00
69667;BME280;66534;52.370;4.832;2023-05-08T00:17:17;102086.56;;;16.53;100.00
69667;BME280;66534;52.370;4.832;2023-05-08T00:17:47;102093.34;;;16.59;100.00
69667;BME280;66534;52.370;4.832;2023-05-08T00:18:18;102087.97;;;16.60;100.00
69667;BME280;66534;52.370;4.832;2023-05-08T00:18:48;102092.56;;;16.57;100.00
69667;BME280;66534;52.370;4.832;2023-05-08T00:19:18;102095.22;;;16.57;100.00
69667;BME280;66534;52.370;4.832;2023-05-08T00:19:49;102089.59;;;16.63;100.00
69667;BME280;66534;52.370;4.832;2023-05-08T00:20:19;102092.00;;;16.67;100.00
69667;BME280;66534;52.370;4.832;2023-05-08T00:20:50;102085.81;;;16.68;100.00
69667;BME280;66534;52.370;4.832;2023-05-08T00:21:20;102080.78;;;16.62;100.00
69667;BME280;66534;52.370;4.832;2023-05-08T00:21:51;102085.56;;;16.56;100.00
69667;BME280;66534;52.370;4.832;2023-05-08T00:22:21;102086.41;;;16.56;100.00
69667;BME280;66534;52.370;4.832;2023-05-08T00:22:52;102089.22;;;16.53;100.00
69667;BME280;66534;52.370;4.832;2023-05-08T00:23:22;102083.44;;;16.45;100.00
69667;BME280;66534;52.370;4.832;2023-05-08T00:23:52;102085.09;;;16.48;100.00
69667;BME280;66534;52.370;4.832;2023-05-08T00:24:23;102085.78;;;16.51;100.00
69667;BME280;66534;52.370;4.832;2023-05-08T00:24:53;102085.63;;;16.54;100.00
69667;BME280;66534;52.370;4.832;2023-05-08T00:25:24;102080.94;;;16.59;100.00
69667;BME280;66534;52.370;4.832;2023-05-08T00:25:54;102079.09;;;16.61;100.00
69667;BME280;66534;52.370;4.832;2023-05-08T00:26:24;102086.94;;;16.63;100.00
69667;BME280;66534;52.370;4.832;2023-05-08T00:26:55;102089.06;;;16.56;100.00
69667;BME280;66534;52.370;4.832;2023-05-08T00:27:25;102084.69;;;16.55;100.00
69667;BME280;66534;52.370;4.832;2023-05-08T00:27:56;102088.22;;;16.56;100.00
69667;BME280;66534;52.370;4.832;2023-05-08T00:28:27;102086.56;;;16.53;100.00
69667;BME280;66534;52.370;4.832;2023-05-08T00:28:57;102085.31;;;16.43;100.00
69667;BME280;66534;52.370;4.832;2023-05-08T00:29:28;102084.38;;;16.44;100.00
69667;BME280;66534;52.370;4.832;2023-05-08T00:29:58;102081.72;;;16.44;100.00
69667;BME280;66534;52.370;4.832;2023-05-08T00:30:28;102088.59;;;16.48;100.00
69667;BME280;66534;52.370;4.832;2023-05-08T00:30:59;102089.13;;;16.55;100.00
69667;BME280;66534;52.370;4.832;2023-05-08T00:31:31;102088.25;;;16.54;100.00
69667;BME280;66534;52.370;4.832;2023-05-08T00:32:01;102086.56;;;16.53;100.00
69667;BME280;66534;52.370;4.832;2023-05-08T00:32:32;102087.31;;;16.55;100.00
69667;BME280;66534;52.370;4.832;2023-05-08T00:33:02;102087.13;;;16.60;100.00
69667;BME280;66534;52.370;4.832;2023-05-08T00:33:33;102085.34;;;16.60;100.00
69667;BME280;66534;52.370;4.832;2023-05-08T00:34:04;102085.56;;;16.56;100.00
69667;BME280;66534;52.370;4.832;2023-05-08T00:34:34;102088.44;;;16.51;100.00
69667;BME280;66534;52.370;4.832;2023-05-08T00:35:05;102086.22;;;16.42;100.00
69667;BME280;66534;52.370;4.832;2023-05-08T00:35:36;102087.97;;;16.24;100.00
69667;BME280;66534;52.370;4.832;2023-05-08T00:36:06;102081.16;;;16.37;100.00
69667;BME280;66534;52.370;4.832;2023-05-08T00:36:37;102079.06;;;16.44;100.00
69667;BME280;66534;52.370;4.832;2023-05-08T00:37:07;102087.56;;;16.51;100.00
69667;BME280;66534;52.370;4.832;2023-05-08T00:37:37;102088.72;;;16.45;100.00
69667;BME280;66534;52.370;4.832;2023-05-08T00:38:10;102091.88;;;16.34;100.00
69667;BME280;66534;52.370;4.832;2023-05-08T00:38:40;102090.03;;;16.36;100.00
69667;BME280;66534;52.370;4.832;2023-05-08T00:39:11;102083.56;;;16.42;100.00
69667;BME280;66534;52.370;4.832;2023-05-08T00:39:41;102083.44;;;16.45;100.00
69667;BME280;66534;52.370;4.832;2023-05-08T00:40:12;102092.84;;;16.51;100.00
69667;BME280;66534;52.370;4.832;2023-05-08T00:40:42;102092.00;;;16.50;100.00
69667;BME280;66534;52.370;4.832;2023-05-08T00:41:12;102084.75;;;16.54;100.00
69667;BME280;66534;52.370;4.832;2023-05-08T00:41:43;102092.63;;;16.55;100.00
69667;BME280;66534;52.370;4.832;2023-05-08T00:42:13;102088.25;;;16.54;100.00
69667;BME280;66534;52.370;4.832;2023-05-08T00:42:44;102085.13;;;16.46;100.00
69667;BME280;66534;52.370;4.832;2023-05-08T00:43:14;102088.56;;;16.31;100.00
69667;BME280;66534;52.370;4.832;2023-05-08T00:43:44;102091.69;;;16.39;100.00
69667;BME280;66534;52.370;4.832;2023-05-08T00:44:15;102093.88;;;16.48;100.00
69667;BME280;66534;52.370;4.832;2023-05-08T00:44:45;102090.16;;;16.52;100.00
69667;BME280;66534;52.370;4.832;2023-05-08T00:45:16;102090.06;;;16.54;100.00
69667;BME280;66534;52.370;4.832;2023-05-08T00:45:47;102092.38;;;16.42;100.00
69667;BME280;66534;52.370;4.832;2023-05-08T00:46:17;102091.34;;;16.28;100.00
69667;BME280;66534;52.370;4.832;2023-05-08T00:46:48;102098.22;;;16.13;100.00
69667;BME280;66534;52.370;4.832;2023-05-08T00:47:19;102092.28;;;16.27;100.00
69667;BME280;66534;52.370;4.832;2023-05-08T00:47:51;102089.25;;;16.34;100.00
69667;BME280;66534;52.370;4.832;2023-05-08T00:48:22;102094.41;;;16.37;100.00
69667;BME280;66534;52.370;4.832;2023-05-08T00:48:54;102090.91;;;16.37;100.00
69667;BME280;66534;52.370;4.832;2023-05-08T00:49:24;102095.19;;;16.39;100.00
69667;BME280;66534;52.370;4.832;2023-05-08T00:49:56;102091.88;;;16.34;100.00
69667;BME280;66534;52.370;4.832;2023-05-08T00:50:27;102093.53;;;16.37;100.00
69667;BME280;66534;52.370;4.832;2023-05-08T00:50:59;102089.81;;;16.41;100.00
69667;BME280;66534;52.370;4.832;2023-05-08T00:51:32;102094.13;;;16.43;100.00
69667;BME280;66534;52.370;4.832;2023-05-08T00:52:03;102087.03;;;16.44;100.00
69667;BME280;66534;52.370;4.832;2023-05-08T00:52:37;102088.72;;;16.45;100.00
69667;BME280;66534;52.370;4.832;2023-05-08T00:53:08;102091.16;;;16.50;100.00
69667;BME280;66534;52.370;4.832;2023-05-08T00:53:41;102089.44;;;16.49;100.00
69667;BME280;66534;52.370;4.832;2023-05-08T00:54:14;102091.16;;;16.50;100.00
69667;BME280;66534;52.370;4.832;2023-05-08T00:54:45;102096.53;;;16.48;100.00
69667;BME280;66534;52.370;4.832;2023-05-08T00:55:16;102086.78;;;16.49;100.00
69667;BME280;66534;52.370;4.832;2023-05-08T00:55:49;102082.91;;;16.56;100.00
69667;BME280;66534;52.370;4.832;2023-05-08T00:56:20;102086.78;;;16.49;100.00
69667;BME280;66534;52.370;4.832;2023-05-08T00:56:53;102093.06;;;16.29;100.00
69667;BME280;66534;52.370;4.832;2023-05-08T00:57:24;102080.22;;;16.02;100.00
69667;BME280;66534;52.370;4.832;2023-05-08T00:57:55;102085.56;;;16.01;100.00
69667;BME280;66534;52.370;4.832;2023-05-08T00:58:26;102079.59;;;15.97;100.00
69667;BME280;66534;52.370;4.832;2023-05-08T00:58:56;102082.16;;;15.99;100.00
69667;BME280;66534;52.370;4.832;2023-05-08T00:59:27;102089.03;;;16.03;100.00
69667;BME280;66534;52.370;4.832;2023-05-08T00:59:58;102081.03;;;15.85;100.00
69667;BME280;66534;52.370;4.832;2023-05-08T01:00:31;102087.72;;;15.92;100.00
69667;BME280;66534;52.370;4.832;2023-05-08T01:01:01;102087.72;;;15.92;100.00
69667;BME280;66534;52.370;4.832;2023-05-08T01:01:33;102087.44;;;15.99;100.00
69667;BME280;66534;52.370;4.832;2023-05-08T01:02:06;102090.59;;;16.07;100.00
69667;BME280;66534;52.370;4.832;2023-05-08T01:02:37;102085.56;;;16.19;100.00
69667;BME280;66534;52.370;4.832;2023-05-08T01:03:09;102084.34;;;16.08;100.00
69667;BME280;66534;52.370;4.832;2023-05-08T01:03:39;102086.56;;;16.17;100.00
69667;BME280;66534;52.370;4.832;2023-05-08T01:04:10;102081.94;;;16.22;100.00
69667;BME280;66534;52.370;4.832;2023-05-08T01:04:40;102084.88;;;16.33;100.00
69667;BME280;66534;52.370;4.832;2023-05-08T01:05:13;102088.25;;;16.37;100.00
69667;BME280;66534;52.370;4.832;2023-05-08T01:05:43;102086.81;;;16.30;100.00
69667;BME280;66534;52.370;4.832;2023-05-08T01:06:14;102089.63;;;16.27;100.00
69667;BME280;66534;52.370;4.832;2023-05-08T01:06:45;102082.28;;;16.14;100.00
69667;BME280;66534;52.370;4.832;2023-05-08T01:07:16;102084.56;;;16.22;100.00
69667;BME280;66534;52.370;4.832;2023-05-08T01:07:46;102081.47;;;16.31;100.00
69667;BME280;66534;52.370;4.832;2023-05-08T01:08:17;102084.84;;;16.35;100.00
69667;BME280;66534;52.370;4.832;2023-05-08T01:08:47;102080.34;;;16.18;100.00
69667;BME280;66534;52.370;4.832;2023-05-08T01:09:18;102082.19;;;16.16;100.00
69667;BME280;66534;52.370;4.832;2023-05-08T01:09:48;102077.28;;;16.08;100.00
69667;BME280;66534;52.370;4.832;2023-05-08T01:10:19;102085.47;;;16.21;100.00
69667;BME280;66534;52.370;4.832;2023-05-08T01:11:10;102078.09;;;16.28;100.00
69667;BME280;66534;52.370;4.832;2023-05-08T01:12:29;102070.66;;;16.36;100.00
69667;BME280;66534;52.370;4.832;2023-05-08T01:13:17;102077.88;;;16.32;100.00
69667;BME280;66534;52.370;4.832;2023-05-08T01:14:06;102074.25;;;16.35;100.00
69667;BME280;66534;52.370;4.832;2023-05-08T01:15:28;102070.88;;;16.31;100.00
69667;BME280;66534;52.370;4.832;2023-05-08T01:16:08;102081.47;;;16.31;100.00
69667;BME280;66534;52.370;4.832;2023-05-08T01:17:58;102078.09;;;16.28;100.00
69667;BME280;66534;52.370;4.832;2023-05-08T01:18:36;102079.19;;;16.24;100.00
69667;BME280;66534;52.370;4.832;2023-05-08T01:20:14;102073.97;;;16.22;100.00
69667;BME280;66534;52.370;4.832;2023-05-08T01:21:02;102075.59;;;16.25;100.00
69667;BME280;66534;52.370;4.832;2023-05-08T01:21:37;102079.06;;;16.27;100.00
69667;BME280;66534;52.370;4.832;2023-05-08T01:22:19;102079.06;;;16.08;100.00
69667;BME280;66534;52.370;4.832;2023-05-08T01:24:16;102078.34;;;16.23;100.00
69667;BME280;66534;52.370;4.832;2023-05-08T01:29:58;102077.91;;;16.13;100.00
69667;BME280;66534;52.370;4.832;2023-05-08T01:32:40;102076.00;;;15.98;100.00
69667;BME280;66534;52.370;4.832;2023-05-08T01:33:16;102077.34;;;16.07;100.00
69667;BME280;66534;52.370;4.832;2023-05-08T01:33:58;102080.50;;;16.15;100.00
69667;BME280;66534;52.370;4.832;2023-05-08T01:34:35;102080.22;;;16.02;100.00
69667;BME280;66534;52.370;4.832;2023-05-08T01:35:31;102085.69;;;16.16;100.00
69667;BME280;66534;52.370;4.832;2023-05-08T01:37:28;102080.88;;;15.69;100.00
69667;BME280;66534;52.370;4.832;2023-05-08T01:39:17;102080.31;;;15.82;100.00
69667;BME280;66534;52.370;4.832;2023-05-08T01:40:40;102072.06;;;16.07;100.00
69667;BME280;66534;52.370;4.832;2023-05-08T01:41:25;102077.44;;;16.05;100.00
69667;BME280;66534;52.370;4.832;2023-05-08T01:42:01;102074.50;;;15.92;100.00
69667;BME280;66534;52.370;4.832;2023-05-08T01:46:01;102086.88;;;16.11;100.00
69667;BME280;66534;52.370;4.832;2023-05-08T01:46:37;102074.34;;;16.14;100.00
69667;BME280;66534;52.370;4.832;2023-05-08T01:47:08;102078.28;;;16.06;100.00
69667;BME280;66534;52.370;4.832;2023-05-08T01:47:41;102078.50;;;15.82;100.00
69667;BME280;66534;52.370;4.832;2023-05-08T01:50:13;102074.06;;;15.83;100.00
69667;BME280;66534;52.370;4.832;2023-05-08T01:50:51;102085.50;;;15.83;100.00
69667;BME280;66534;52.370;4.832;2023-05-08T01:51:40;102078.44;;;15.84;100.00
69667;BME280;66534;52.370;4.832;2023-05-08T01:52:17;102071.84;;;15.92;100.00
69667;BME280;66534;52.370;4.832;2023-05-08T01:52:55;102073.50;;;15.95;100.00
69667;BME280;66534;52.370;4.832;2023-05-08T01:53:28;102079.50;;;15.99;100.00
69667;BME280;66534;52.370;4.832;2023-05-08T01:54:03;102080.34;;;15.99;100.00
69667;BME280;66534;52.370;4.832;2023-05-08T01:54:43;102078.66;;;15.98;100.00
69667;BME280;66534;52.370;4.832;2023-05-08T01:55:26;102076.84;;;15.99;100.00
69667;BME280;66534;52.370;4.832;2023-05-08T01:56:04;102074.50;;;15.92;100.00
69667;BME280;66534;52.370;4.832;2023-05-08T01:56:41;102077.56;;;15.83;100.00
69667;BME280;66534;52.370;4.832;2023-05-08T01:57:13;102083.09;;;15.79;100.00
69667;BME280;66534;52.370;4.832;2023-05-08T01:57:48;102084.97;;;15.56;100.00
69667;BME280;66534;52.370;4.832;2023-05-08T01:58:23;102083.69;;;15.26;100.00
69667;BME280;66534;52.370;4.832;2023-05-08T01:58:55;102087.38;;;15.42;100.00
69667;BME280;66534;52.370;4.832;2023-05-08T01:59:28;102094.41;;;15.62;100.00
69667;BME280;66534;52.370;4.832;2023-05-08T02:00:02;102087.75;;;15.53;100.00
69667;BME280;66534;52.370;4.832;2023-05-08T02:00:35;102088.81;;;15.49;100.00
69667;BME280;66534;52.370;4.832;2023-05-08T02:01:09;102081.41;;;15.57;100.00
69667;BME280;66534;52.370;4.832;2023-05-08T02:01:41;102084.22;;;15.73;100.00
69667;BME280;66534;52.370;4.832;2023-05-08T02:02:15;102090.69;;;15.67;100.00
69667;BME280;66534;52.370;4.832;2023-05-08T02:02:47;102092.19;;;15.53;100.00
69667;BME280;66534;52.370;4.832;2023-05-08T02:03:20;102100.84;;;14.97;100.00
69667;BME280;66534;52.370;4.832;2023-05-08T02:03:53;102100.63;;;14.81;100.00
69667;BME280;66534;52.370;4.832;2023-05-08T02:04:25;102103.50;;;14.75;100.00
69667;BME280;66534;52.370;4.832;2023-05-08T02:05:01;102103.47;;;14.54;100.00
69667;BME280;66534;52.370;4.832;2023-05-08T02:05:35;102105.41;;;14.71;100.00
69667;BME280;66534;52.370;4.832;2023-05-08T02:06:08;102099.16;;;14.74;100.00
69667;BME280;66534;52.370;4.832;2023-05-08T02:06:41;102097.38;;;14.74;100.00
69667;BME280;66534;52.370;4.832;2023-05-08T02:07:12;102105.56;;;14.68;100.00
69667;BME280;66534;52.370;4.832;2023-05-08T02:07:43;102108.16;;;14.90;100.00
69667;BME280;66534;52.370;4.832;2023-05-08T02:08:16;102109.88;;;14.91;100.00
69667;BME280;66534;52.370;4.832;2023-05-08T02:08:50;102106.78;;;14.81;100.00
69667;BME280;66534;52.370;4.832;2023-05-08T02:09:24;102110.53;;;14.54;100.00
69667;BME280;66534;52.370;4.832;2023-05-08T02:09:57;102116.16;;;14.44;100.00
69667;BME280;66534;52.370;4.832;2023-05-08T02:10:29;102112.75;;;14.42;100.00
69667;BME280;66534;52.370;4.832;2023-05-08T02:11:00;102113.19;;;14.54;100.00
69667;BME280;66534;52.370;4.832;2023-05-08T02:11:38;102113.06;;;14.57;100.00
69667;BME280;66534;52.370;4.832;2023-05-08T02:12:11;102108.44;;;14.62;100.00
69667;BME280;66534;52.370;4.832;2023-05-08T02:12:43;102116.88;;;14.50;100.00
69667;BME280;66534;52.370;4.832;2023-05-08T02:13:16;102113.59;;;14.43;100.00
69667;BME280;66534;52.370;4.832;2023-05-08T02:13:49;102113.81;;;14.37;100.00
69667;BME280;66534;52.370;4.832;2023-05-08T02:14:21;102111.19;;;14.15;100.00
69667;BME280;66534;52.370;4.832;2023-05-08T02:14:54;102116.16;;;14.01;100.00
69667;BME280;66534;52.370;4.832;2023-05-08T02:15:25;102109.78;;;14.06;100.00
69667;BME280;66534;52.370;4.832;2023-05-08T02:15:58;102113.38;;;14.04;100.00
69667;BME280;66534;52.370;4.832;2023-05-08T02:16:30;102116.81;;;14.06;100.00
69667;BME280;66534;52.370;4.832;2023-05-08T02:17:02;102115.53;;;14.16;100.00
69667;BME280;66534;52.370;4.832;2023-05-08T02:17:35;102117.00;;;14.01;100.00
69667;BME280;66534;52.370;4.832;2023-05-08T02:18:08;102114.47;;;13.98;100.00
69667;BME280;66534;52.370;4.832;2023-05-08T02:18:41;102118.09;;;13.95;100.00
69667;BME280;66534;52.370;4.832;2023-05-08T02:19:21;102111.59;;;14.04;100.00
69667;BME280;66534;52.370;4.832;2023-05-08T02:19:55;102121.03;;;13.88;100.00
69667;BME280;66534;52.370;4.832;2023-05-08T02:20:27;102119.00;;;13.94;100.00
69667;BME280;66534;52.370;4.832;2023-05-08T02:21:01;102117.63;;;14.08;100.00
69667;BME280;66534;52.370;4.832;2023-05-08T02:21:33;102112.13;;;14.14;100.00
69667;BME280;66534;52.370;4.832;2023-05-08T02:22:06;102123.25;;;13.99;100.00
69667;BME280;66534;52.370;4.832;2023-05-08T02:22:37;102118.34;;;14.11;100.00
69667;BME280;66534;52.370;4.832;2023-05-08T02:23:08;102123.06;;;14.27;100.00
69667;BME280;66534;52.370;4.832;2023-05-08T02:23:40;102123.13;;;14.47;100.00
69667;BME280;66534;52.370;4.832;2023-05-08T02:24:12;102111.81;;;14.65;100.00
69667;BME280;66534;52.370;4.832;2023-05-08T02:24:44;102128.97;;;14.55;100.00
69667;BME280;66534;52.370;4.832;2023-05-08T02:25:15;102124.88;;;14.25;100.00
69667;BME280;66534;52.370;4.832;2023-05-08T02:25:47;102128.50;;;14.22;100.00
69667;BME280;66534;52.370;4.832;2023-05-08T02:26:19;102120.81;;;14.38;100.00
69667;BME280;66534;52.370;4.832;2023-05-08T02:26:52;102128.31;;;14.27;100.00
69667;BME280;66534;52.370;4.832;2023-05-08T02:27:25;102125.41;;;14.56;100.00
69667;BME280;66534;52.370;4.832;2023-05-08T02:27:58;102133.88;;;14.42;100.00
69667;BME280;66534;52.370;4.832;2023-05-08T02:28:29;102120.34;;;14.28;100.00
69667;BME280;66534;52.370;4.832;2023-05-08T02:29:01;102127.41;;;14.28;100.00
69667;BME280;66534;52.370;4.832;2023-05-08T02:29:33;102126.66;;;14.24;100.00
69667;BME280;66534;52.370;4.832;2023-05-08T02:30:05;102123.75;;;14.54;100.00
69667;BME280;66534;52.370;4.832;2023-05-08T02:30:36;102126.75;;;14.66;100.00
69667;BME280;66534;52.370;4.832;2023-05-08T02:31:09;102127.31;;;14.53;100.00
69667;BME280;66534;52.370;4.832;2023-05-08T02:31:41;102130.19;;;14.47;100.00
69667;BME280;66534;52.370;4.832;2023-05-08T02:32:14;102125.38;;;14.34;100.00
69667;BME280;66534;52.370;4.832;2023-05-08T02:32:48;102125.63;;;14.50;100.00
69667;BME280;66534;52.370;4.832;2023-05-08T02:33:21;102118.50;;;14.30;100.00
69667;BME280;66534;52.370;4.832;2023-05-08T02:33:52;102123.09;;;14.25;100.00
69667;BME280;66534;52.370;4.832;2023-05-08T02:34:23;102121.75;;;14.15;100.00
69667;BME280;66534;52.370;4.832;2023-05-08T02:34:54;102119.94;;;13.93;100.00
69667;BME280;66534;52.370;4.832;2023-05-08T02:35:26;102115.34;;;13.99;100.00
69667;BME280;66534;52.370;4.832;2023-05-08T02:35:58;102119.81;;;13.97;100.00
69667;BME280;66534;52.370;4.832;2023-05-08T02:36:31;102114.78;;;13.90;100.00
69667;BME280;66534;52.370;4.832;2023-05-08T02:37:03;102123.22;;;13.77;100.00
69667;BME280;66534;52.370;4.832;2023-05-08T02:37:34;102117.00;;;14.01;100.00
69667;BME280;66534;52.370;4.832;2023-05-08T02:38:06;102119.59;;;14.25;100.00
69667;BME280;66534;52.370;4.832;2023-05-08T02:38:40;102117.94;;;14.44;100.00
69667;BME280;66534;52.370;4.832;2023-05-08T02:39:14;102112.50;;;14.49;100.00
69667;BME280;66534;52.370;4.832;2023-05-08T02:39:47;102111.09;;;14.62;100.00
69667;BME280;66534;52.370;4.832;2023-05-08T02:40:21;102116.47;;;14.81;100.00
69667;BME280;66534;52.370;4.832;2023-05-08T02:40:54;102108.22;;;14.68;100.00
69667;BME280;66534;52.370;4.832;2023-05-08T02:41:28;102112.88;;;14.61;100.00
69667;BME280;66534;52.370;4.832;2023-05-08T02:42:01;102108.63;;;14.57;100.00
69667;BME280;66534;52.370;4.832;2023-05-08T02:42:32;102114.56;;;14.40;100.00
69667;BME280;66534;52.370;4.832;2023-05-08T02:43:03;102112.00;;;14.39;100.00
69667;BME280;66534;52.370;4.832;2023-05-08T02:43:34;102114.03;;;14.54;100.00
69667;BME280;66534;52.370;4.832;2023-05-08T02:44:05;102106.53;;;14.65;100.00
69667;BME280;66534;52.370;4.832;2023-05-08T02:44:36;102106.66;;;14.62;100.00
69667;BME280;66534;52.370;4.832;2023-05-08T02:45:06;102114.91;;;14.55;100.00
69667;BME280;66534;52.370;4.832;2023-05-08T02:46:48;102102.53;;;14.77;100.00
69667;BME280;66534;52.370;4.832;2023-05-08T02:47:29;102102.16;;;15.07;100.00
69667;BME280;66534;52.370;4.832;2023-05-08T02:50:52;102100.13;;;15.53;100.00
69667;BME280;66534;52.370;4.832;2023-05-08T02:51:29;102099.66;;;15.63;100.00
69667;BME280;66534;52.370;4.832;2023-05-08T02:53:24;102099.72;;;15.23;100.00
69667;BME280;66534;52.370;4.832;2023-05-08T02:54:15;102093.50;;;15.03;100.00
69667;BME280;66534;52.370;4.832;2023-05-08T02:55:45;102100.69;;;14.79;100.00
69667;BME280;66534;52.370;4.832;2023-05-08T02:56:20;102097.13;;;14.80;100.00
69667;BME280;66534;52.370;4.832;2023-05-08T02:57:30;102101.47;;;14.81;100.00
69667;BME280;66534;52.370;4.832;2023-05-08T02:58:41;102094.38;;;14.39;100.00
69667;BME280;66534;52.370;4.832;2023-05-08T02:59:19;102102.59;;;14.32;100.00
69667;BME280;66534;52.370;4.832;2023-05-08T03:00:30;102102.13;;;14.22;100.00
69667;BME280;66534;52.370;4.832;2023-05-08T03:01:13;102099.47;;;14.22;100.00
69667;BME280;66534;52.370;4.832;2023-05-08T03:01:53;102095.44;;;14.35;100.00
69667;BME280;66534;52.370;4.832;2023-05-08T03:02:34;102088.97;;;14.64;100.00
69667;BME280;66534;52.370;4.832;2023-05-08T03:03:25;102090.97;;;15.00;100.00
69667;BME280;66534;52.370;4.832;2023-05-08T03:04:04;102088.72;;;14.70;100.00
69667;BME280;66534;52.370;4.832;2023-05-08T03:04:44;102093.94;;;14.72;100.00
69667;BME280;66534;52.370;4.832;2023-05-08T03:05:28;102088.72;;;14.70;100.00
69667;BME280;66534;52.370;4.832;2023-05-08T03:06:01;102080.34;;;15.02;100.00
69667;BME280;66534;52.370;4.832;2023-05-08T03:06:41;102089.78;;;15.07;100.00
69667;BME280;66534;52.370;4.832;2023-05-08T03:07:15;102079.31;;;15.06;100.00
69667;BME280;66534;52.370;4.832;2023-05-08T03:07:52;102085.66;;;15.02;100.00
69667;BME280;66534;52.370;4.832;2023-05-08T03:08:31;102082.47;;;14.93;100.00
69667;BME280;66534;52.370;4.832;2023-05-08T03:09:04;102088.28;;;15.02;100.00
69667;BME280;66534;52.370;4.832;2023-05-08T03:09:38;102080.94;;;15.08;100.00
69667;BME280;66534;52.370;4.832;2023-05-08T03:10:12;102078.03;;;15.35;100.00
69667;BME280;66534;52.370;4.832;2023-05-08T03:10:45;102076.78;;;15.42;100.00
69667;BME280;66534;52.370;4.832;2023-05-08T03:11:21;102076.09;;;15.38;100.00
69667;BME280;66534;52.370;4.832;2023-05-08T03:12:02;102079.31;;;15.45;100.00
69667;BME280;66534;52.370;4.832;2023-05-08T03:12:37;102079.81;;;15.34;100.00
69667;BME280;66534;52.370;4.832;2023-05-08T03:13:11;102084.69;;;15.23;100.00
69667;BME280;66534;52.370;4.832;2023-05-08T03:13:45;102071.00;;;15.34;100.00
69667;BME280;66534;52.370;4.832;2023-05-08T03:14:18;102084.09;;;15.16;100.00
69667;BME280;66534;52.370;4.832;2023-05-08T03:14:55;102073.28;;;15.02;100.00
69667;BME280;66534;52.370;4.832;2023-05-08T03:15:41;102069.38;;;15.11;100.00
69667;BME280;66534;52.370;4.832;2023-05-08T03:16:15;102074.53;;;15.14;100.00
69667;BME280;66534;52.370;4.832;2023-05-08T03:16:49;102071.69;;;15.18;100.00
69667;BME280;66534;52.370;4.832;2023-05-08T03:17:22;102079.72;;;15.36;100.00
69667;BME280;66534;52.370;4.832;2023-05-08T03:17:56;102079.03;;;15.51;100.00
69667;BME280;66534;52.370;4.832;2023-05-08T03:18:34;102073.31;;;15.60;100.00
69667;BME280;66534;52.370;4.832;2023-05-08T03:19:15;102080.91;;;15.29;100.00
69667;BME280;66534;52.370;4.832;2023-05-08T03:19:55;102075.91;;;15.23;100.00
69667;BME280;66534;52.370;4.832;2023-05-08T03:20:30;102076.44;;;15.31;100.00
69667;BME280;66534;52.370;4.832;2023-05-08T03:21:03;102077.91;;;15.17;100.00